sensor_id;sensor_type;location;lat;lon;timestamp;temperature;humidity
43772;HTU21D;59066;54.782;32.024;2023-07-13T00:02:24;14.80;52.71
43772;HTU21D;59066;54.782;32.024;2023-07-13T00:04:52;14.71;52.85
43772;HTU21D;59066;54.782;32.024;2023-07-13T00:07:19;14.69;53.11
43772;HTU21D;59066;54.782;32.024;2023-07-13T00:09:48;14.72;53.09
43772;HTU21D;59066;54.782;32.024;2023-07-13T00:12:25;14.72;53.28
43772;HTU21D;59066;54.782;32.024;2023-07-13T00:14:53;14.70;53.12
43772;HTU21D;59066;54.782;32.024;2023-07-13T00:17:20;14.66;53.25
43772;HTU21D;59066;54.782;32.024;2023-07-13T00:19:48;14.68;53.46
43772;HTU21D;59066;54.782;32.024;2023-07-13T00:22:16;14.67;53.43
43772;HTU21D;59066;54.782;32.024;2023-07-13T00:24:45;14.63;53.54
43772;HTU21D;59066;54.782;32.024;2023-07-13T00:27:15;14.60;53.55
43772;HTU21D;59066;54.782;32.024;2023-07-13T00:29:42;14.63;53.59
43772;HTU21D;59066;54.782;32.024;2023-07-13T00:32:10;14.60;53.60
43772;HTU21D;59066;54.782;32.024;2023-07-13T00:34:39;14.56;53.65
43772;HTU21D;59066;54.782;32.024;2023-07-13T00:37:07;14.52;53.68
43772;HTU21D;59066;54.782;32.024;2023-07-13T00:39:35;14.51;53.64
43772;HTU21D;59066;54.782;32.024;2023-07-13T00:42:03;14.48;53.75
43772;HTU21D;59066;54.782;32.024;2023-07-13T00:44:31;14.44;53.82
43772;HTU21D;59066;54.782;32.024;2023-07-13T00:46:59;14.41;53.88
43772;HTU21D;59066;54.782;32.024;2023-07-13T00:49:29;14.44;53.95
43772;HTU21D;59066;54.782;32.024;2023-07-13T00:52:05;14.38;54.22
43772;HTU21D;59066;54.782;32.024;2023-07-13T00:54:39;14.40;54.67
43772;HTU21D;59066;54.782;32.024;2023-07-13T00:57:12;14.35;54.55
43772;HTU21D;59066;54.782;32.024;2023-07-13T00:59:45;14.29;54.71
43772;HTU21D;59066;54.782;32.024;2023-07-13T01:02:14;14.26;54.87
43772;HTU21D;59066;54.782;32.024;2023-07-13T01:04:43;14.27;54.85
43772;HTU21D;59066;54.782;32.024;2023-07-13T01:07:12;14.25;55.04
43772;HTU21D;59066;54.782;32.024;2023-07-13T01:09:39;14.18;55.28
43772;HTU21D;59066;54.782;32.024;2023-07-13T01:12:08;14.19;55.58
43772;HTU21D;59066;54.782;32.024;2023-07-13T01:14:35;14.14;55.67
43772;HTU21D;59066;54.782;32.024;2023-07-13T01:17:03;14.11;55.94
43772;HTU21D;59066;54.782;32.024;2023-07-13T01:19:43;14.07;56.42
43772;HTU21D;59066;54.782;32.024;2023-07-13T01:22:17;14.05;56.46
43772;HTU21D;59066;54.782;32.024;2023-07-13T01:24:47;14.06;56.32
43772;HTU21D;59066;54.782;32.024;2023-07-13T01:27:19;14.03;56.55
43772;HTU21D;59066;54.782;32.024;2023-07-13T01:29:47;13.93;56.74
43772;HTU21D;59066;54.782;32.024;2023-07-13T01:32:21;13.88;57.14
43772;HTU21D;59066;54.782;32.024;2023-07-13T01:34:54;13.86;57.00
43772;HTU21D;59066;54.782;32.024;2023-07-13T01:37:24;13.84;57.19
43772;HTU21D;59066;54.782;32.024;2023-07-13T01:39:51;13.81;57.27
43772;HTU21D;59066;54.782;32.024;2023-07-13T01:42:19;13.83;57.10
43772;HTU21D;59066;54.782;32.024;2023-07-13T01:44:47;13.81;57.12
43772;HTU21D;59066;54.782;32.024;2023-07-13T01:47:15;13.78;57.12
43772;HTU21D;59066;54.782;32.024;2023-07-13T01:49:42;13.76;57.13
43772;HTU21D;59066;54.782;32.024;2023-07-13T01:52:10;13.75;57.10
43772;HTU21D;59066;54.782;32.024;2023-07-13T01:54:37;13.76;57.14
43772;HTU21D;59066;54.782;32.024;2023-07-13T01:57:05;13.75;57.13
43772;HTU21D;59066;54.782;32.024;2023-07-13T01:59:32;13.74;57.16
43772;HTU21D;59066;54.782;32.024;2023-07-13T02:02:00;13.78;57.10
43772;HTU21D;59066;54.782;32.024;2023-07-13T02:04:28;13.74;57.19
43772;HTU21D;59066;54.782;32.024;2023-07-13T02:06:55;13.74;57.26
43772;HTU21D;59066;54.782;32.024;2023-07-13T02:09:23;13.75;57.26
43772;HTU21D;59066;54.782;32.024;2023-07-13T02:11:50;13.80;57.15
43772;HTU21D;59066;54.782;32.024;2023-07-13T02:14:18;13.84;57.05
43772;HTU21D;59066;54.782;32.024;2023-07-13T02:16:45;13.84;57.08
43772;HTU21D;59066;54.782;32.024;2023-07-13T02:19:13;13.89;57.02
43772;HTU21D;59066;54.782;32.024;2023-07-13T02:21:40;13.90;56.97
43772;HTU21D;59066;54.782;32.024;2023-07-13T02:24:08;13.98;57.10
43772;HTU21D;59066;54.782;32.024;2023-07-13T02:26:35;14.05;56.81
43772;HTU21D;59066;54.782;32.024;2023-07-13T02:29:03;14.14;56.49
43772;HTU21D;59066;54.782;32.024;2023-07-13T02:31:31;14.25;56.36
43772;HTU21D;59066;54.782;32.024;2023-07-13T02:33:58;14.28;56.18
43772;HTU21D;59066;54.782;32.024;2023-07-13T02:36:26;14.36;56.03
43772;HTU21D;59066;54.782;32.024;2023-07-13T02:38:53;14.38;56.08
43772;HTU21D;59066;54.782;32.024;2023-07-13T02:41:21;14.41;56.00
43772;HTU21D;59066;54.782;32.024;2023-07-13T02:43:50;14.45;55.87
43772;HTU21D;59066;54.782;32.024;2023-07-13T02:46:17;14.49;55.74
43772;HTU21D;59066;54.782;32.024;2023-07-13T02:48:46;14.53;55.58
43772;HTU21D;59066;54.782;32.024;2023-07-13T02:51:14;14.56;55.49
43772;HTU21D;59066;54.782;32.024;2023-07-13T02:53:41;14.59;55.37
43772;HTU21D;59066;54.782;32.024;2023-07-13T02:56:09;14.66;55.22
43772;HTU21D;59066;54.782;32.024;2023-07-13T02:58:38;14.74;55.06
43772;HTU21D;59066;54.782;32.024;2023-07-13T03:01:08;14.80;54.87
43772;HTU21D;59066;54.782;32.024;2023-07-13T03:03:35;14.81;54.93
43772;HTU21D;59066;54.782;32.024;2023-07-13T03:06:04;14.85;54.81
43772;HTU21D;59066;54.782;32.024;2023-07-13T03:08:41;14.83;54.82
43772;HTU21D;59066;54.782;32.024;2023-07-13T03:11:11;14.98;54.62
43772;HTU21D;59066;54.782;32.024;2023-07-13T03:13:42;14.98;54.59
43772;HTU21D;59066;54.782;32.024;2023-07-13T03:16:11;15.04;54.50
43772;HTU21D;59066;54.782;32.024;2023-07-13T03:18:42;15.18;54.33
43772;HTU21D;59066;54.782;32.024;2023-07-13T03:21:11;15.23;54.17
43772;HTU21D;59066;54.782;32.024;2023-07-13T03:23:39;15.23;54.13
43772;HTU21D;59066;54.782;32.024;2023-07-13T03:26:19;15.24;53.97
43772;HTU21D;59066;54.782;32.024;2023-07-13T03:28:48;15.25;54.08
43772;HTU21D;59066;54.782;32.024;2023-07-13T03:31:23;15.31;54.01
43772;HTU21D;59066;54.782;32.024;2023-07-13T03:33:52;15.36;54.03
43772;HTU21D;59066;54.782;32.024;2023-07-13T03:36:25;15.33;54.16
43772;HTU21D;59066;54.782;32.024;2023-07-13T03:38:58;15.38;54.12
43772;HTU21D;59066;54.782;32.024;2023-07-13T03:41:34;15.43;54.20
43772;HTU21D;59066;54.782;32.024;2023-07-13T03:44:02;15.40;54.24
43772;HTU21D;59066;54.782;32.024;2023-07-13T03:46:30;15.47;54.22
43772;HTU21D;59066;54.782;32.024;2023-07-13T03:48:58;15.44;54.28
43772;HTU21D;59066;54.782;32.024;2023-07-13T03:51:29;15.58;54.23
43772;HTU21D;59066;54.782;32.024;2023-07-13T03:53:56;15.57;54.41
43772;HTU21D;59066;54.782;32.024;2023-07-13T03:56:24;15.63;54.53
43772;HTU21D;59066;54.782;32.024;2023-07-13T03:58:52;15.68;54.56
43772;HTU21D;59066;54.782;32.024;2023-07-13T04:01:22;15.73;54.59
43772;HTU21D;59066;54.782;32.024;2023-07-13T04:03:50;15.76;54.81
43772;HTU21D;59066;54.782;32.024;2023-07-13T04:06:27;15.81;54.94
43772;HTU21D;59066;54.782;32.024;2023-07-13T04:08:57;15.87;54.93
43772;HTU21D;59066;54.782;32.024;2023-07-13T04:11:27;15.90;55.01
43772;HTU21D;59066;54.782;32.024;2023-07-13T04:13:56;15.96;55.13
43772;HTU21D;59066;54.782;32.024;2023-07-13T04:16:24;16.02;55.33
43772;HTU21D;59066;54.782;32.024;2023-07-13T04:18:52;16.11;55.34
43772;HTU21D;59066;54.782;32.024;2023-07-13T04:21:28;16.13;55.52
43772;HTU21D;59066;54.782;32.024;2023-07-13T04:23:56;16.14;55.77
43772;HTU21D;59066;54.782;32.024;2023-07-13T04:26:24;16.16;55.92
43772;HTU21D;59066;54.782;32.024;2023-07-13T04:28:51;16.10;56.27
43772;HTU21D;59066;54.782;32.024;2023-07-13T04:31:19;16.10;56.42
43772;HTU21D;59066;54.782;32.024;2023-07-13T04:33:47;16.10;56.48
43772;HTU21D;59066;54.782;32.024;2023-07-13T04:36:16;16.11;56.54
43772;HTU21D;59066;54.782;32.024;2023-07-13T04:38:44;16.15;56.74
43772;HTU21D;59066;54.782;32.024;2023-07-13T04:41:13;16.08;56.82
43772;HTU21D;59066;54.782;32.024;2023-07-13T04:43:41;16.11;56.83
43772;HTU21D;59066;54.782;32.024;2023-07-13T04:46:15;16.15;56.95
43772;HTU21D;59066;54.782;32.024;2023-07-13T04:48:43;16.18;56.92
43772;HTU21D;59066;54.782;32.024;2023-07-13T04:51:17;16.24;57.22
43772;HTU21D;59066;54.782;32.024;2023-07-13T04:53:45;16.29;57.10
43772;HTU21D;59066;54.782;32.024;2023-07-13T04:56:13;16.34;57.18
43772;HTU21D;59066;54.782;32.024;2023-07-13T04:58:40;16.36;57.16
43772;HTU21D;59066;54.782;32.024;2023-07-13T05:01:09;16.48;57.08
43772;HTU21D;59066;54.782;32.024;2023-07-13T05:03:37;16.59;56.91
43772;HTU21D;59066;54.782;32.024;2023-07-13T05:06:07;16.67;56.88
43772;HTU21D;59066;54.782;32.024;2023-07-13T05:08:38;16.72;56.81
43772;HTU21D;59066;54.782;32.024;2023-07-13T05:11:06;16.80;56.84
43772;HTU21D;59066;54.782;32.024;2023-07-13T05:13:34;16.89;56.72
43772;HTU21D;59066;54.782;32.024;2023-07-13T05:16:04;16.99;56.61
43772;HTU21D;59066;54.782;32.024;2023-07-13T05:18:33;17.10;56.53
43772;HTU21D;59066;54.782;32.024;2023-07-13T05:21:06;17.21;56.47
43772;HTU21D;59066;54.782;32.024;2023-07-13T05:23:35;17.25;56.25
43772;HTU21D;59066;54.782;32.024;2023-07-13T05:26:04;17.31;56.16
43772;HTU21D;59066;54.782;32.024;2023-07-13T05:28:35;17.40;56.03
43772;HTU21D;59066;54.782;32.024;2023-07-13T05:31:04;17.51;55.99
43772;HTU21D;59066;54.782;32.024;2023-07-13T05:33:31;17.65;55.79
43772;HTU21D;59066;54.782;32.024;2023-07-13T05:35:59;17.80;55.62
43772;HTU21D;59066;54.782;32.024;2023-07-13T05:38:28;17.87;55.57
43772;HTU21D;59066;54.782;32.024;2023-07-13T05:40:57;17.98;55.31
43772;HTU21D;59066;54.782;32.024;2023-07-13T05:43:25;18.04;55.27
43772;HTU21D;59066;54.782;32.024;2023-07-13T05:45:54;18.17;55.25
43772;HTU21D;59066;54.782;32.024;2023-07-13T05:48:22;18.27;55.24
43772;HTU21D;59066;54.782;32.024;2023-07-13T05:50:52;18.42;55.16
43772;HTU21D;59066;54.782;32.024;2023-07-13T05:53:20;18.54;55.00
43772;HTU21D;59066;54.782;32.024;2023-07-13T05:55:48;18.68;54.84
43772;HTU21D;59066;54.782;32.024;2023-07-13T05:58:17;18.80;54.78
43772;HTU21D;59066;54.782;32.024;2023-07-13T06:00:46;18.95;54.71
43772;HTU21D;59066;54.782;32.024;2023-07-13T06:03:15;19.09;54.52
43772;HTU21D;59066;54.782;32.024;2023-07-13T06:05:42;19.22;54.23
43772;HTU21D;59066;54.782;32.024;2023-07-13T06:08:10;19.27;54.06
43772;HTU21D;59066;54.782;32.024;2023-07-13T06:10:38;19.37;53.79
43772;HTU21D;59066;54.782;32.024;2023-07-13T06:13:05;19.44;53.54
43772;HTU21D;59066;54.782;32.024;2023-07-13T06:15:33;19.52;53.27
43772;HTU21D;59066;54.782;32.024;2023-07-13T06:18:00;19.59;53.02
43772;HTU21D;59066;54.782;32.024;2023-07-13T06:20:28;19.76;52.67
43772;HTU21D;59066;54.782;32.024;2023-07-13T06:22:56;19.85;52.61
43772;HTU21D;59066;54.782;32.024;2023-07-13T06:25:24;19.95;52.44
43772;HTU21D;59066;54.782;32.024;2023-07-13T06:27:51;20.05;52.23
43772;HTU21D;59066;54.782;32.024;2023-07-13T06:30:19;20.20;51.62
43772;HTU21D;59066;54.782;32.024;2023-07-13T06:32:46;20.31;51.26
43772;HTU21D;59066;54.782;32.024;2023-07-13T06:35:14;20.40;51.06
43772;HTU21D;59066;54.782;32.024;2023-07-13T06:37:41;20.49;50.88
43772;HTU21D;59066;54.782;32.024;2023-07-13T06:40:09;20.59;50.69
43772;HTU21D;59066;54.782;32.024;2023-07-13T06:42:37;20.71;50.44
43772;HTU21D;59066;54.782;32.024;2023-07-13T06:45:06;20.86;49.66
43772;HTU21D;59066;54.782;32.024;2023-07-13T06:47:33;20.96;49.42
43772;HTU21D;59066;54.782;32.024;2023-07-13T06:50:02;21.00;48.87
43772;HTU21D;59066;54.782;32.024;2023-07-13T06:52:30;21.07;48.21
43772;HTU21D;59066;54.782;32.024;2023-07-13T06:54:57;21.18;47.97
43772;HTU21D;59066;54.782;32.024;2023-07-13T06:57:25;21.22;47.68
43772;HTU21D;59066;54.782;32.024;2023-07-13T06:59:53;21.29;47.25
43772;HTU21D;59066;54.782;32.024;2023-07-13T07:02:21;21.34;46.54
43772;HTU21D;59066;54.782;32.024;2023-07-13T07:04:48;21.36;46.36
43772;HTU21D;59066;54.782;32.024;2023-07-13T07:07:17;21.45;45.93
43772;HTU21D;59066;54.782;32.024;2023-07-13T07:09:44;21.52;45.12
43772;HTU21D;59066;54.782;32.024;2023-07-13T07:12:12;21.57;44.81
43772;HTU21D;59066;54.782;32.024;2023-07-13T07:14:41;21.64;44.74
43772;HTU21D;59066;54.782;32.024;2023-07-13T07:17:08;21.70;44.53
43772;HTU21D;59066;54.782;32.024;2023-07-13T07:19:36;21.77;44.22
43772;HTU21D;59066;54.782;32.024;2023-07-13T07:22:04;21.80;43.45
43772;HTU21D;59066;54.782;32.024;2023-07-13T07:24:31;21.85;43.15
43772;HTU21D;59066;54.782;32.024;2023-07-13T07:26:59;21.92;42.58
43772;HTU21D;59066;54.782;32.024;2023-07-13T07:29:29;21.99;42.00
43772;HTU21D;59066;54.782;32.024;2023-07-13T07:32:00;22.07;41.95
43772;HTU21D;59066;54.782;32.024;2023-07-13T07:34:31;22.16;41.87
43772;HTU21D;59066;54.782;32.024;2023-07-13T07:37:00;22.22;41.62
43772;HTU21D;59066;54.782;32.024;2023-07-13T07:39:31;22.22;41.16
43772;HTU21D;59066;54.782;32.024;2023-07-13T07:41:58;22.26;40.13
43772;HTU21D;59066;54.782;32.024;2023-07-13T07:44:26;22.39;40.59
43772;HTU21D;59066;54.782;32.024;2023-07-13T07:46:55;22.48;39.71
43772;HTU21D;59066;54.782;32.024;2023-07-13T07:49:23;22.47;38.96
43772;HTU21D;59066;54.782;32.024;2023-07-13T07:51:51;22.39;39.21
43772;HTU21D;59066;54.782;32.024;2023-07-13T07:54:18;22.48;39.14
43772;HTU21D;59066;54.782;32.024;2023-07-13T07:57:06;22.60;39.17
43772;HTU21D;59066;54.782;32.024;2023-07-13T07:59:38;22.63;38.94
43772;HTU21D;59066;54.782;32.024;2023-07-13T08:02:10;22.71;38.59
43772;HTU21D;59066;54.782;32.024;2023-07-13T08:04:57;22.77;38.57
43772;HTU21D;59066;54.782;32.024;2023-07-13T08:07:30;22.81;38.53
43772;HTU21D;59066;54.782;32.024;2023-07-13T08:09:59;22.93;38.52
43772;HTU21D;59066;54.782;32.024;2023-07-13T08:12:26;22.90;38.57
43772;HTU21D;59066;54.782;32.024;2023-07-13T08:14:57;22.96;38.67
43772;HTU21D;59066;54.782;32.024;2023-07-13T08:17:25;23.02;38.30
43772;HTU21D;59066;54.782;32.024;2023-07-13T08:19:52;23.13;38.36
43772;HTU21D;59066;54.782;32.024;2023-07-13T08:22:20;23.29;37.83
43772;HTU21D;59066;54.782;32.024;2023-07-13T08:24:48;23.42;37.15
43772;HTU21D;59066;54.782;32.024;2023-07-13T08:27:23;23.50;36.59
43772;HTU21D;59066;54.782;32.024;2023-07-13T08:29:52;23.53;36.58
43772;HTU21D;59066;54.782;32.024;2023-07-13T08:32:21;23.59;35.92
43772;HTU21D;59066;54.782;32.024;2023-07-13T08:34:50;23.64;35.11
43772;HTU21D;59066;54.782;32.024;2023-07-13T08:37:18;23.67;35.11
43772;HTU21D;59066;54.782;32.024;2023-07-13T08:39:46;23.70;34.79
43772;HTU21D;59066;54.782;32.024;2023-07-13T08:42:37;23.62;34.35
43772;HTU21D;59066;54.782;32.024;2023-07-13T08:45:22;23.67;34.78
43772;HTU21D;59066;54.782;32.024;2023-07-13T08:47:58;23.75;34.34
43772;HTU21D;59066;54.782;32.024;2023-07-13T08:50:32;23.76;34.46
43772;HTU21D;59066;54.782;32.024;2023-07-13T08:53:13;23.80;34.82
43772;HTU21D;59066;54.782;32.024;2023-07-13T08:55:40;23.79;34.96
43772;HTU21D;59066;54.782;32.024;2023-07-13T08:58:13;23.92;35.18
43772;HTU21D;59066;54.782;32.024;2023-07-13T09:01:05;24.04;34.75
43772;HTU21D;59066;54.782;32.024;2023-07-13T09:03:41;24.16;34.10
43772;HTU21D;59066;54.782;32.024;2023-07-13T09:06:13;24.11;34.19
43772;HTU21D;59066;54.782;32.024;2023-07-13T09:09:02;24.19;34.02
43772;HTU21D;59066;54.782;32.024;2023-07-13T09:11:56;24.26;34.25
43772;HTU21D;59066;54.782;32.024;2023-07-13T09:14:45;24.44;33.83
43772;HTU21D;59066;54.782;32.024;2023-07-13T09:18:03;24.39;33.97
43772;HTU21D;59066;54.782;32.024;2023-07-13T09:20:16;24.47;33.74
43772;HTU21D;59066;54.782;32.024;2023-07-13T09:22:44;24.44;33.46
43772;HTU21D;59066;54.782;32.024;2023-07-13T09:28:01;24.73;33.28
43772;HTU21D;59066;54.782;32.024;2023-07-13T09:30:43;24.91;33.54
43772;HTU21D;59066;54.782;32.024;2023-07-13T09:33:12;24.95;33.26
43772;HTU21D;59066;54.782;32.024;2023-07-13T09:35:39;25.03;32.76
43772;HTU21D;59066;54.782;32.024;2023-07-13T09:43:12;24.98;32.51
43772;HTU21D;59066;54.782;32.024;2023-07-13T09:45:40;25.00;32.53
43772;HTU21D;59066;54.782;32.024;2023-07-13T09:48:13;25.00;32.44
43772;HTU21D;59066;54.782;32.024;2023-07-13T09:50:41;25.00;32.58
43772;HTU21D;59066;54.782;32.024;2023-07-13T09:53:18;25.16;32.54
43772;HTU21D;59066;54.782;32.024;2023-07-13T09:55:47;25.36;32.62
43772;HTU21D;59066;54.782;32.024;2023-07-13T09:58:24;25.53;32.33
43772;HTU21D;59066;54.782;32.024;2023-07-13T10:01:00;25.59;32.13
43772;HTU21D;59066;54.782;32.024;2023-07-13T10:03:36;25.90;32.16
43772;HTU21D;59066;54.782;32.024;2023-07-13T10:06:12;26.04;31.54
43772;HTU21D;59066;54.782;32.024;2023-07-13T10:08:41;26.31;32.34
43772;HTU21D;59066;54.782;32.024;2023-07-13T10:11:22;26.90;31.41
43772;HTU21D;59066;54.782;32.024;2023-07-13T10:13:58;27.39;31.38
43772;HTU21D;59066;54.782;32.024;2023-07-13T10:16:31;27.90;30.49
43772;HTU21D;59066;54.782;32.024;2023-07-13T10:19:10;28.05;28.48
43772;HTU21D;59066;54.782;32.024;2023-07-13T10:21:57;28.28;28.38
43772;HTU21D;59066;54.782;32.024;2023-07-13T10:24:30;28.32;28.40
43772;HTU21D;59066;54.782;32.024;2023-07-13T10:30:19;28.88;27.46
43772;HTU21D;59066;54.782;32.024;2023-07-13T10:32:47;28.86;27.52
43772;HTU21D;59066;54.782;32.024;2023-07-13T10:35:18;28.77;27.52
43772;HTU21D;59066;54.782;32.024;2023-07-13T10:37:57;28.21;27.46
43772;HTU21D;59066;54.782;32.024;2023-07-13T10:41:00;28.05;27.97
43772;HTU21D;59066;54.782;32.024;2023-07-13T10:43:38;28.39;27.66
43772;HTU21D;59066;54.782;32.024;2023-07-13T10:46:15;28.71;27.78
43772;HTU21D;59066;54.782;32.024;2023-07-13T10:48:47;29.24;27.27
43772;HTU21D;59066;54.782;32.024;2023-07-13T10:51:18;29.30;27.07
43772;HTU21D;59066;54.782;32.024;2023-07-13T10:56:45;30.45;25.96
43772;HTU21D;59066;54.782;32.024;2023-07-13T10:59:27;30.23;25.97
43772;HTU21D;59066;54.782;32.024;2023-07-13T11:02:11;30.86;25.54
43772;HTU21D;59066;54.782;32.024;2023-07-13T11:04:45;31.08;25.23
43772;HTU21D;59066;54.782;32.024;2023-07-13T11:07:24;30.62;24.90
43772;HTU21D;59066;54.782;32.024;2023-07-13T11:09:55;30.66;25.14
43772;HTU21D;59066;54.782;32.024;2023-07-13T11:25:39;29.88;25.24
43772;HTU21D;59066;54.782;32.024;2023-07-13T11:33:24;29.59;25.63
43772;HTU21D;59066;54.782;32.024;2023-07-13T11:36:02;29.26;26.21
43772;HTU21D;59066;54.782;32.024;2023-07-13T11:41:06;28.35;27.42
43772;HTU21D;59066;54.782;32.024;2023-07-13T11:43:34;28.12;27.87
43772;HTU21D;59066;54.782;32.024;2023-07-13T11:46:22;27.93;28.64
43772;HTU21D;59066;54.782;32.024;2023-07-13T11:48:51;28.24;28.71
43772;HTU21D;59066;54.782;32.024;2023-07-13T11:51:33;29.11;27.63
43772;HTU21D;59066;54.782;32.024;2023-07-13T11:54:13;29.65;27.58
43772;HTU21D;59066;54.782;32.024;2023-07-13T11:56:42;30.09;27.36
43772;HTU21D;59066;54.782;32.024;2023-07-13T11:59:11;30.06;27.12
43772;HTU21D;59066;54.782;32.024;2023-07-13T12:01:46;30.11;26.81
43772;HTU21D;59066;54.782;32.024;2023-07-13T12:04:34;29.60;27.57
43772;HTU21D;59066;54.782;32.024;2023-07-13T12:07:07;29.11;28.46
43772;HTU21D;59066;54.782;32.024;2023-07-13T12:09:36;28.59;28.71
43772;HTU21D;59066;54.782;32.024;2023-07-13T12:12:11;28.24;29.75
43772;HTU21D;59066;54.782;32.024;2023-07-13T12:14:39;28.13;29.81
43772;HTU21D;59066;54.782;32.024;2023-07-13T12:17:22;27.81;30.96
43772;HTU21D;59066;54.782;32.024;2023-07-13T12:19:52;27.58;31.56
43772;HTU21D;59066;54.782;32.024;2023-07-13T12:22:20;27.23;32.18
43772;HTU21D;59066;54.782;32.024;2023-07-13T12:24:48;27.08;32.81
43772;HTU21D;59066;54.782;32.024;2023-07-13T12:27:25;26.95;33.57
43772;HTU21D;59066;54.782;32.024;2023-07-13T12:29:59;26.80;34.08
43772;HTU21D;59066;54.782;32.024;2023-07-13T12:32:27;26.75;34.49
43772;HTU21D;59066;54.782;32.024;2023-07-13T12:35:01;26.90;34.52
43772;HTU21D;59066;54.782;32.024;2023-07-13T12:37:34;26.96;34.60
43772;HTU21D;59066;54.782;32.024;2023-07-13T12:40:03;26.91;34.86
43772;HTU21D;59066;54.782;32.024;2023-07-13T12:42:32;27.06;34.91
43772;HTU21D;59066;54.782;32.024;2023-07-13T12:45:27;27.01;35.22
43772;HTU21D;59066;54.782;32.024;2023-07-13T12:48:05;27.15;35.20
43772;HTU21D;59066;54.782;32.024;2023-07-13T12:50:40;27.12;35.44
43772;HTU21D;59066;54.782;32.024;2023-07-13T12:53:16;27.01;35.74
43772;HTU21D;59066;54.782;32.024;2023-07-13T12:55:50;27.01;35.94
43772;HTU21D;59066;54.782;32.024;2023-07-13T12:58:26;27.13;36.08
43772;HTU21D;59066;54.782;32.024;2023-07-13T13:00:57;27.10;36.21
43772;HTU21D;59066;54.782;32.024;2023-07-13T13:03:51;27.35;36.10
43772;HTU21D;59066;54.782;32.024;2023-07-13T13:08:49;26.94;37.08
43772;HTU21D;59066;54.782;32.024;2023-07-13T13:11:18;26.85;37.24
43772;HTU21D;59066;54.782;32.024;2023-07-13T13:13:47;26.73;37.48
43772;HTU21D;59066;54.782;32.024;2023-07-13T13:16:26;26.50;37.79
43772;HTU21D;59066;54.782;32.024;2023-07-13T13:19:08;26.23;38.45
43772;HTU21D;59066;54.782;32.024;2023-07-13T13:21:37;26.19;38.49
43772;HTU21D;59066;54.782;32.024;2023-07-13T13:24:16;26.18;39.03
43772;HTU21D;59066;54.782;32.024;2023-07-13T13:26:45;26.11;39.02
43772;HTU21D;59066;54.782;32.024;2023-07-13T13:29:15;26.15;39.21
43772;HTU21D;59066;54.782;32.024;2023-07-13T13:31:46;26.20;39.43
43772;HTU21D;59066;54.782;32.024;2023-07-13T13:34:17;26.16;39.73
43772;HTU21D;59066;54.782;32.024;2023-07-13T13:36:48;26.22;39.91
43772;HTU21D;59066;54.782;32.024;2023-07-13T13:39:25;26.27;40.53
43772;HTU21D;59066;54.782;32.024;2023-07-13T13:41:55;26.37;40.17
43772;HTU21D;59066;54.782;32.024;2023-07-13T13:44:22;26.56;39.97
43772;HTU21D;59066;54.782;32.024;2023-07-13T13:46:53;26.52;40.33
43772;HTU21D;59066;54.782;32.024;2023-07-13T13:49:23;26.66;40.25
43772;HTU21D;59066;54.782;32.024;2023-07-13T13:51:52;26.62;40.23
43772;HTU21D;59066;54.782;32.024;2023-07-13T13:54:20;26.66;40.33
43772;HTU21D;59066;54.782;32.024;2023-07-13T13:56:50;27.19;40.02
43772;HTU21D;59066;54.782;32.024;2023-07-13T13:59:18;27.98;39.26
43772;HTU21D;59066;54.782;32.024;2023-07-13T14:01:47;28.34;38.36
43772;HTU21D;59066;54.782;32.024;2023-07-13T14:04:18;28.16;38.20
43772;HTU21D;59066;54.782;32.024;2023-07-13T14:06:47;28.31;37.85
43772;HTU21D;59066;54.782;32.024;2023-07-13T14:09:17;28.12;37.81
43772;HTU21D;59066;54.782;32.024;2023-07-13T14:11:46;27.79;38.17
43772;HTU21D;59066;54.782;32.024;2023-07-13T14:14:23;27.61;38.47
43772;HTU21D;59066;54.782;32.024;2023-07-13T14:16:54;27.38;38.55
43772;HTU21D;59066;54.782;32.024;2023-07-13T14:19:23;27.22;38.90
43772;HTU21D;59066;54.782;32.024;2023-07-13T14:21:51;27.12;39.20
43772;HTU21D;59066;54.782;32.024;2023-07-13T14:24:21;27.04;39.59
43772;HTU21D;59066;54.782;32.024;2023-07-13T14:26:49;27.02;39.86
43772;HTU21D;59066;54.782;32.024;2023-07-13T14:29:18;27.31;39.54
43772;HTU21D;59066;54.782;32.024;2023-07-13T14:31:50;27.24;39.52
43772;HTU21D;59066;54.782;32.024;2023-07-13T14:34:18;27.20;39.49
43772;HTU21D;59066;54.782;32.024;2023-07-13T14:36:48;27.13;39.68
43772;HTU21D;59066;54.782;32.024;2023-07-13T14:39:19;27.19;39.49
43772;HTU21D;59066;54.782;32.024;2023-07-13T14:41:53;27.68;38.70
43772;HTU21D;59066;54.782;32.024;2023-07-13T14:44:25;27.86;38.55
43772;HTU21D;59066;54.782;32.024;2023-07-13T14:46:53;27.74;38.68
43772;HTU21D;59066;54.782;32.024;2023-07-13T14:52:11;28.18;38.16
43772;HTU21D;59066;54.782;32.024;2023-07-13T14:54:40;28.84;37.54
43772;HTU21D;59066;54.782;32.024;2023-07-13T14:57:18;29.35;36.55
43772;HTU21D;59066;54.782;32.024;2023-07-13T14:59:47;29.72;36.31
43772;HTU21D;59066;54.782;32.024;2023-07-13T15:02:33;30.11;35.03
43772;HTU21D;59066;54.782;32.024;2023-07-13T15:05:01;30.50;34.84
43772;HTU21D;59066;54.782;32.024;2023-07-13T15:07:32;31.10;34.37
43772;HTU21D;59066;54.782;32.024;2023-07-13T15:10:00;31.42;33.98
43772;HTU21D;59066;54.782;32.024;2023-07-13T15:12:28;31.53;33.56
43772;HTU21D;59066;54.782;32.024;2023-07-13T15:14:56;31.58;32.99
43772;HTU21D;59066;54.782;32.024;2023-07-13T15:17:31;31.76;32.33
43772;HTU21D;59066;54.782;32.024;2023-07-13T15:20:00;32.34;32.15
43772;HTU21D;59066;54.782;32.024;2023-07-13T15:22:28;32.79;31.42
43772;HTU21D;59066;54.782;32.024;2023-07-13T15:24:56;32.63;31.37
43772;HTU21D;59066;54.782;32.024;2023-07-13T15:27:26;32.71;31.17
43772;HTU21D;59066;54.782;32.024;2023-07-13T15:29:54;32.35;31.15
43772;HTU21D;59066;54.782;32.024;2023-07-13T15:32:21;31.92;31.62
43772;HTU21D;59066;54.782;32.024;2023-07-13T15:34:50;31.85;31.73
43772;HTU21D;59066;54.782;32.024;2023-07-13T15:37:18;31.81;31.93
43772;HTU21D;59066;54.782;32.024;2023-07-13T15:39:48;32.05;31.70
43772;HTU21D;59066;54.782;32.024;2023-07-13T15:42:16;31.80;32.01
43772;HTU21D;59066;54.782;32.024;2023-07-13T15:44:44;31.42;32.50
43772;HTU21D;59066;54.782;32.024;2023-07-13T15:47:13;31.70;32.38
43772;HTU21D;59066;54.782;32.024;2023-07-13T15:49:42;32.15;31.99
43772;HTU21D;59066;54.782;32.024;2023-07-13T15:52:23;32.31;31.38
43772;HTU21D;59066;54.782;32.024;2023-07-13T15:55:00;32.31;31.57
43772;HTU21D;59066;54.782;32.024;2023-07-13T15:57:28;32.54;31.25
43772;HTU21D;59066;54.782;32.024;2023-07-13T15:59:55;32.62;31.22
43772;HTU21D;59066;54.782;32.024;2023-07-13T16:02:25;32.43;31.26
43772;HTU21D;59066;54.782;32.024;2023-07-13T16:04:53;32.12;31.73
43772;HTU21D;59066;54.782;32.024;2023-07-13T16:07:20;32.14;31.81